Time;durP1;ratioP1;P1;durP2;ratioP2;P2;SDS_P1;SDS_P2;PMS_P1;PMS_P2;Temp;Humidity;BMP_temperature;BMP_pressure;BME280_temperature;BME280_humidity;BME280_pressure;Samples;Min_cycle;Max_cycle;Signal;HPM_P1;HPM_P2
2021/12/17 00:00:45;;;;;;;;;47.80;41.40;;;;;11.11;62.97;103162.88;2066748;28;48248;-57
2021/12/17 00:04:14;;;;;;;;;54.40;46.40;;;;;11.09;62.70;103166.41;2067220;28;48237;-58
2021/12/17 00:05:17;;;;;;;;;50.60;42.00;;;;;11.09;62.94;103169.06;2071019;28;47413;-58
2021/12/17 00:07:29;;;;;;;;;55.60;43.60;;;;;11.07;62.99;103166.38;2066723;28;47631;-58
2021/12/17 00:08:29;;;;;;;;;49.40;41.80;;;;;11.07;62.75;103161.06;2071365;28;47280;-59
2021/12/17 00:09:30;;;;;;;;;53.25;44.75;;;;;11.07;62.85;103163.72;2070897;28;47316;-58
2021/12/17 00:10:30;;;;;;;;;54.75;44.50;;;;;11.06;63.01;103158.38;2070013;28;47170;-57
2021/12/17 00:11:30;;;;;;;;;51.25;42.00;;;;;11.06;63.00;103155.72;2068238;28;47668;-59
2021/12/17 00:12:31;;;;;;;;;53.00;44.40;;;;;11.06;62.53;103153.06;2065646;28;47701;-57
2021/12/17 00:13:34;;;;;;;;;55.75;46.50;;;;;11.05;62.59;103153.91;2070266;28;47677;-58
2021/12/17 00:14:37;;;;;;;;;54.00;45.00;;;;;11.04;63.04;103161.00;2070136;28;47888;-57
2021/12/17 00:15:38;;;;;;;;;50.80;42.00;;;;;11.04;62.83;103155.69;2070071;28;47653;-59
2021/12/17 00:16:41;;;;;;;;;49.00;41.60;;;;;11.03;62.91;103159.22;2069708;28;47300;-58
2021/12/17 00:17:51;;;;;;;;;47.80;41.20;;;;;11.02;62.79;103156.53;2067692;28;47392;-58
2021/12/17 00:40:23;;;;;;;;;53.00;43.40;;;;;10.97;62.79;103159.13;2070293;28;46442;-57
2021/12/17 00:48:55;;;;;;;;;52.60;43.60;;;;;10.83;63.18;103150.06;2070385;28;47182;-57
2021/12/17 00:52:35;;;;;;;;;57.80;46.00;;;;;10.79;63.26;103151.75;2050716;28;47162;-57
2021/12/17 00:53:35;;;;;;;;;55.40;45.20;;;;;10.78;63.32;103143.75;2065075;28;48105;-57
2021/12/17 00:54:39;;;;;;;;;56.50;44.50;;;;;10.78;63.29;103152.59;2070159;28;45528;-57
2021/12/17 00:55:40;;;;;;;;;52.40;42.40;;;;;10.76;63.25;103148.16;2069945;28;47797;-58
2021/12/17 00:56:40;;;;;;;;;52.50;43.50;;;;;10.75;63.51;103146.38;2069025;28;47971;-59
2021/12/17 00:57:43;;;;;;;;;55.50;45.00;;;;;10.72;63.39;103147.22;2066494;28;46789;-58
2021/12/17 00:58:44;;;;;;;;;57.40;45.80;;;;;10.72;63.33;103144.56;2069192;28;47736;-58
2021/12/17 00:59:50;;;;;;;;;53.75;44.75;;;;;10.71;63.23;103142.78;2070411;28;47332;-57
2021/12/17 01:00:50;;;;;;;;;55.80;44.20;;;;;10.70;63.51;103142.75;2062541;28;47565;-58
2021/12/17 01:01:53;;;;;;;;;44.25;39.25;;;;;10.68;63.54;103140.06;2065854;28;45742;-56
2021/12/17 01:02:54;;;;;;;;;47.20;40.20;;;;;10.68;63.44;103142.72;2064587;28;47222;-57
2021/12/17 01:03:55;;;;;;;;;53.75;43.00;;;;;10.68;63.63;103133.88;2069602;28;47242;-57
2021/12/17 01:05:05;;;;;;;;;51.60;43.40;;;;;10.67;63.61;103132.06;2070332;28;47365;-59
2021/12/17 01:06:09;;;;;;;;;59.60;47.00;;;;;10.66;63.70;103131.16;2069841;28;47831;-58
2021/12/17 01:07:10;;;;;;;;;52.00;43.00;;;;;10.66;63.61;103133.81;2067304;28;46193;-59
2021/12/17 01:08:11;;;;;;;;;51.80;41.80;;;;;10.66;63.82;103132.94;2069444;28;47234;-60
2021/12/17 01:09:16;;;;;;;;;49.75;41.00;;;;;10.64;63.56;103127.59;2070134;28;47156;-59
2021/12/17 01:10:21;;;;;;;;;50.40;41.80;;;;;10.63;63.57;103131.13;2070112;28;47363;-59
2021/12/17 01:11:22;;;;;;;;;49.00;41.20;;;;;10.63;63.90;103131.13;2068114;28;47523;-58
2021/12/17 01:12:24;;;;;;;;;50.60;42.20;;;;;10.62;63.68;103132.00;2064656;28;47215;-60
2021/12/17 01:13:27;;;;;;;;;49.80;42.20;;;;;10.63;63.71;103130.22;2069165;28;47538;-58
2021/12/17 01:14:29;;;;;;;;;53.20;42.00;;;;;10.60;63.95;103131.97;2069652;28;47719;-58
2021/12/17 01:15:30;;;;;;;;;50.00;42.40;;;;;10.60;63.81;103133.72;2069710;28;47705;-58
2021/12/17 01:16:31;;;;;;;;;54.80;43.00;;;;;10.59;63.81;103132.84;2067122;28;47614;-62
2021/12/17 01:17:34;;;;;;;;;52.60;44.00;;;;;10.59;63.85;103137.25;2066816;28;47450;-60
2021/12/17 01:18:50;;;;;;;;;49.00;40.60;;;;;10.60;64.08;103133.72;2069455;28;47898;-57
2021/12/17 01:20:18;;;;;;;;;52.00;42.60;;;;;10.59;63.91;103129.28;2068151;28;45742;-59
2021/12/17 01:21:38;;;;;;;;;55.60;44.60;;;;;10.58;63.72;103136.38;2069434;28;47078;-58
2021/12/17 01:25:09;;;;;;;;;50.60;41.80;;;;;10.58;63.91;103140.78;2061672;28;46340;-58
2021/12/17 01:36:22;;;;;;;;;51.00;41.40;;;;;10.53;64.18;103127.41;2066508;28;45256;-58
2021/12/17 01:42:11;;;;;;;;;50.80;43.60;;;;;10.49;64.15;103128.22;2059022;28;48659;-62
2021/12/17 01:43:13;;;;;;;;;49.25;41.25;;;;;10.49;64.12;103130.88;2057568;28;47053;-58
2021/12/17 01:44:15;;;;;;;;;53.20;43.00;;;;;10.48;64.32;103134.41;2060237;28;48308;-59
2021/12/17 01:45:16;;;;;;;;;53.40;41.80;;;;;10.48;64.06;103125.56;2063554;28;47242;-58
2021/12/17 01:46:21;;;;;;;;;51.25;43.25;;;;;10.49;64.06;103130.00;2062364;28;46896;-58
2021/12/17 01:47:22;;;;;;;;;51.20;42.80;;;;;10.47;64.04;103127.31;2061497;28;47204;-62
2021/12/17 01:48:30;;;;;;;;;53.50;44.00;;;;;10.48;64.11;103130.88;2065611;28;48441;-59
2021/12/17 01:56:15;;;;;;;;;53.60;43.60;;;;;10.44;63.89;103135.25;2055639;28;48511;-56
2021/12/17 01:59:43;;;;;;;;;51.20;42.60;;;;;10.41;64.56;103126.31;2069580;28;47961;-56
2021/12/17 02:00:45;;;;;;;;;50.60;41.20;;;;;10.41;64.10;103132.50;2070271;28;47945;-58
2021/12/17 02:01:59;;;;;;;;;51.20;42.20;;;;;10.41;64.14;103128.97;2067862;28;47432;-57
2021/12/17 02:03:00;;;;;;;;;51.60;42.00;;;;;10.41;64.14;103129.84;2070838;28;45362;-59
2021/12/17 02:04:04;;;;;;;;;50.00;42.00;;;;;10.41;64.19;103127.19;2069830;28;47510;-58
2021/12/17 02:05:05;;;;;;;;;50.60;39.60;;;;;10.43;64.23;103129.91;2069508;28;47654;-58
2021/12/17 02:06:06;;;;;;;;;51.00;42.00;;;;;10.42;64.22;103134.31;2069435;28;47592;-58
2021/12/17 02:07:06;;;;;;;;;47.25;40.25;;;;;10.44;64.19;103137.91;2064150;28;47055;-57
2021/12/17 02:08:08;;;;;;;;;44.50;37.75;;;;;10.44;63.89;103129.94;2068412;28;47132;-56
2021/12/17 02:09:44;;;;;;;;;50.00;41.20;;;;;10.43;64.09;103128.16;2069587;28;46096;-59
2021/12/17 02:12:18;;;;;;;;;52.00;41.40;;;;;10.43;64.02;103127.25;2063512;28;47928;-58
2021/12/17 02:20:13;;;;;;;;;53.20;43.80;;;;;10.41;64.14;103121.00;2071090;28;47411;-58
2021/12/17 02:23:10;;;;;;;;;52.60;42.80;;;;;10.41;64.13;103121.88;2066808;28;47706;-58
2021/12/17 02:28:45;;;;;;;;;49.40;39.00;;;;;10.38;63.88;103121.84;2063073;28;47375;-59
2021/12/17 02:30:15;;;;;;;;;43.80;37.80;;;;;10.38;64.08;103123.59;2070969;28;48426;-59
2021/12/17 02:31:26;;;;;;;;;55.40;43.00;;;;;10.37;63.97;103127.13;2070146;28;47569;-58
2021/12/17 02:32:29;;;;;;;;;42.80;37.20;;;;;10.37;63.89;103125.38;2069345;28;47494;-57
2021/12/17 02:33:29;;;;;;;;;46.80;39.20;;;;;10.38;63.95;103129.81;2070444;28;47454;-58
2021/12/17 02:35:42;;;;;;;;;49.40;41.00;;;;;10.38;63.74;103134.22;2070599;28;47426;-58
2021/12/17 02:36:44;;;;;;;;;45.20;38.00;;;;;10.37;63.84;103129.78;2069416;28;47463;-56
2021/12/17 02:37:46;;;;;;;;;45.00;38.00;;;;;10.37;63.99;103121.81;2066029;28;47943;-57
2021/12/17 02:38:47;;;;;;;;;46.00;37.80;;;;;10.37;63.80;103130.69;2066697;28;47977;-56
2021/12/17 02:40:11;;;;;;;;;43.50;38.75;;;;;10.36;63.92;103131.53;2070760;28;47516;-59
2021/12/17 02:46:24;;;;;;;;;31.80;29.40;;;;;10.34;63.75;103125.31;2069928;28;47477;-59
2021/12/17 02:47:25;;;;;;;;;47.40;40.20;;;;;10.32;63.98;103120.00;2065264;28;46235;-58
2021/12/17 02:48:26;;;;;;;;;49.60;40.00;;;;;10.33;64.08;103123.53;2067458;28;47240;-57
2021/12/17 02:49:30;;;;;;;;;47.75;38.00;;;;;10.32;63.84;103117.34;2070826;28;47115;-58
2021/12/17 02:50:31;;;;;;;;;47.40;40.20;;;;;10.32;63.72;103111.13;2071432;28;47520;-57
2021/12/17 02:51:31;;;;;;;;;41.00;37.40;;;;;10.31;63.73;103117.31;2069023;28;47335;-56
2021/12/17 02:52:36;;;;;;;;;42.75;38.25;;;;;10.31;63.78;103112.91;2067208;28;46933;-59
2021/12/17 02:53:37;;;;;;;;;49.00;41.20;;;;;10.30;63.91;103110.22;2070240;28;48175;-58
2021/12/17 02:54:38;;;;;;;;;43.40;37.60;;;;;10.29;64.04;103113.72;2070523;28;47168;-59
2021/12/17 02:55:42;;;;;;;;;47.40;38.40;;;;;10.29;63.64;103113.72;2070096;28;47236;-57
2021/12/17 02:56:43;;;;;;;;;42.40;34.80;;;;;10.28;63.89;103112.81;2069591;28;47646;-57
2021/12/17 02:57:44;;;;;;;;;49.75;41.00;;;;;10.28;63.75;103112.81;2066516;28;47115;-57
2021/12/17 02:58:45;;;;;;;;;45.60;38.00;;;;;10.28;63.76;103111.91;2071686;28;47300;-58
2021/12/17 02:59:45;;;;;;;;;43.60;36.60;;;;;10.27;63.58;103116.34;2070272;28;47382;-59
2021/12/17 03:00:46;;;;;;;;;45.25;38.00;;;;;10.27;63.63;103111.03;2068759;28;46976;-61
2021/12/17 03:01:48;;;;;;;;;43.25;37.25;;;;;10.26;63.78;103106.59;2069024;28;47456;-57
2021/12/17 03:02:50;;;;;;;;;45.60;37.60;;;;;10.27;63.77;103112.78;2067532;28;47167;-58
2021/12/17 03:03:53;;;;;;;;;47.20;39.80;;;;;10.26;63.76;103109.25;2070418;28;47376;-58
2021/12/17 03:04:53;;;;;;;;;46.40;38.60;;;;;10.27;63.59;103111.03;2071088;28;47341;-58
2021/12/17 03:05:54;;;;;;;;;44.75;39.50;;;;;10.27;63.79;103107.47;2070465;28;47021;-57
2021/12/17 03:06:56;;;;;;;;;42.00;34.50;;;;;10.26;63.95;103108.34;2066769;28;46762;-58
2021/12/17 03:07:57;;;;;;;;;42.40;36.80;;;;;10.25;63.66;103104.81;2067630;28;46734;-58
2021/12/17 03:08:57;;;;;;;;;45.20;38.40;;;;;10.25;63.62;103103.91;2070387;28;47324;-58
2021/12/17 03:10:03;;;;;;;;;45.50;38.50;;;;;10.25;63.75;103109.22;2070213;28;47854;-58
2021/12/17 03:11:04;;;;;;;;;49.00;40.20;;;;;10.24;63.93;103110.09;2064082;28;47817;-57
2021/12/17 03:12:09;;;;;;;;;46.75;39.50;;;;;10.25;63.76;103106.56;2064723;28;48648;-57
2021/12/17 03:13:11;;;;;;;;;43.00;35.20;;;;;10.25;63.90;103106.56;2070048;28;47228;-58
2021/12/17 03:14:11;;;;;;;;;50.00;41.60;;;;;10.22;64.04;103102.09;2068753;28;46522;-58
2021/12/17 03:16:31;;;;;;;;;43.20;35.40;;;;;10.23;63.69;103101.25;2068877;28;47216;-58
2021/12/17 03:19:02;;;;;;;;;48.00;39.40;;;;;10.21;63.73;103094.09;2060737;28;47652;-57
2021/12/17 03:24:02;;;;;;;;;42.40;36.80;;;;;10.20;63.53;103090.53;2070633;28;47456;-56
2021/12/17 03:25:03;;;;;;;;;46.80;38.20;;;;;10.20;63.65;103095.84;2069962;28;47886;-57
2021/12/17 03:26:24;;;;;;;;;45.75;38.25;;;;;10.21;63.73;103091.44;2069390;28;48260;-57
2021/12/17 03:27:24;;;;;;;;;45.00;39.20;;;;;10.20;63.67;103090.53;2069893;28;47821;-59
2021/12/17 03:28:25;;;;;;;;;44.50;38.00;;;;;10.19;63.48;103096.72;2069910;28;47874;-58
2021/12/17 03:29:25;;;;;;;;;43.75;37.50;;;;;10.19;63.49;103093.19;2069463;28;47105;-58
2021/12/17 03:30:26;;;;;;;;;45.75;39.25;;;;;10.17;63.69;103090.50;2070750;28;45500;-57
2021/12/17 03:31:27;;;;;;;;;50.50;41.75;;;;;10.19;63.91;103095.81;2068876;28;47498;-56
2021/12/17 03:32:27;;;;;;;;;37.75;33.00;;;;;10.17;63.68;103095.81;2068348;28;47513;-57
2021/12/17 03:33:29;;;;;;;;;46.50;40.50;;;;;10.18;63.71;103099.34;2065710;28;47767;-57
2021/12/17 03:34:30;;;;;;;;;47.80;38.00;;;;;10.16;63.79;103093.09;2069962;28;47789;-59
2021/12/17 03:35:30;;;;;;;;;47.40;38.60;;;;;10.16;63.44;103093.97;2070380;28;47350;-58
2021/12/17 03:36:31;;;;;;;;;45.00;36.25;;;;;10.14;63.48;103098.38;2069279;28;47194;-57
2021/12/17 03:37:32;;;;;;;;;46.60;38.40;;;;;10.14;63.73;103100.13;2066941;28;47786;-57
2021/12/17 03:38:32;;;;;;;;;50.25;40.25;;;;;10.13;63.65;103101.91;2068561;28;46687;-59
2021/12/17 03:39:33;;;;;;;;;42.25;36.75;;;;;10.13;63.46;103099.25;2070277;28;47087;-59
2021/12/17 03:40:34;;;;;;;;;46.00;39.00;;;;;10.14;63.82;103102.78;2070859;28;47310;-60
2021/12/17 03:41:39;;;;;;;;;45.40;37.80;;;;;10.14;63.64;103102.78;2069118;28;47963;-59
2021/12/17 03:42:46;;;;;;;;;48.20;41.00;;;;;10.15;63.74;103101.91;2067758;28;47362;-56
2021/12/17 03:43:48;;;;;;;;;48.20;39.60;;;;;10.14;64.00;103100.13;2066152;28;47565;-56
2021/12/17 03:44:49;;;;;;;;;37.40;34.60;;;;;10.13;63.87;103099.25;2065673;28;47705;-59
2021/12/17 03:45:49;;;;;;;;;46.50;38.50;;;;;10.13;63.77;103101.00;2070226;28;47287;-59
2021/12/17 03:46:51;;;;;;;;;45.75;40.75;;;;;10.15;63.59;103108.13;2067647;28;47123;-58
2021/12/17 03:47:51;;;;;;;;;45.20;38.40;;;;;10.16;63.68;103109.00;2067445;28;47739;-58
2021/12/17 03:48:52;;;;;;;;;48.50;41.00;;;;;10.17;63.65;103106.41;2072172;28;47143;-59
2021/12/17 03:49:53;;;;;;;;;49.00;40.00;;;;;10.18;63.62;103097.59;2073389;28;47160;-57
2021/12/17 03:50:53;;;;;;;;;42.75;38.25;;;;;10.19;63.95;103104.69;2070003;28;47112;-58
2021/12/17 03:52:06;;;;;;;;;42.75;37.75;;;;;10.21;63.64;103107.34;2068068;28;46711;-58
2021/12/17 03:53:08;;;;;;;;;42.60;37.20;;;;;10.22;63.81;103103.88;2070371;28;47203;-57
2021/12/17 03:54:08;;;;;;;;;38.00;33.20;;;;;10.22;63.67;103104.75;2071497;28;47088;-58
2021/12/17 03:55:09;;;;;;;;;46.50;39.75;;;;;10.23;63.30;103109.19;2071150;28;47273;-56
2021/12/17 03:56:10;;;;;;;;;39.50;34.00;;;;;10.23;63.85;103114.50;2068980;28;47439;-62
2021/12/17 03:57:13;;;;;;;;;42.75;35.50;;;;;10.25;63.93;103111.88;2065520;28;46977;-57
2021/12/17 03:58:13;;;;;;;;;47.00;40.40;;;;;10.26;63.63;103109.25;2062821;28;47063;-58
2021/12/17 03:59:14;;;;;;;;;46.75;41.00;;;;;10.28;63.81;103111.91;2069491;28;47204;-58
2021/12/17 04:00:14;;;;;;;;;49.25;41.50;;;;;10.27;63.77;103108.38;2070109;28;47776;-57
2021/12/17 04:01:15;;;;;;;;;44.25;38.00;;;;;10.29;63.64;103111.97;2069812;28;47818;-57
2021/12/17 04:02:16;;;;;;;;;46.75;40.25;;;;;10.31;63.55;103112.00;2066803;28;47168;-57
2021/12/17 04:03:17;;;;;;;;;47.60;38.60;;;;;10.31;63.50;103110.25;2070639;28;45391;-56
2021/12/17 04:04:18;;;;;;;;;45.50;38.75;;;;;10.34;63.54;103105.84;2066555;28;47093;-59
2021/12/17 04:05:18;;;;;;;;;45.75;38.25;;;;;10.34;63.59;103112.06;2069346;28;47040;-57
2021/12/17 04:06:19;;;;;;;;;42.25;37.00;;;;;10.34;63.46;103114.69;2068613;28;47583;-57
2021/12/17 04:07:19;;;;;;;;;45.75;38.25;;;;;10.34;63.41;103112.06;2067999;28;46653;-57
2021/12/17 04:08:20;;;;;;;;;44.00;36.00;;;;;10.36;63.48;103107.66;2070136;28;47227;-58
2021/12/17 04:09:22;;;;;;;;;44.00;38.25;;;;;10.36;63.26;103112.06;2070180;28;46762;-62
2021/12/17 04:10:24;;;;;;;;;49.20;42.00;;;;;10.37;63.27;103105.91;2070155;28;48116;-58
2021/12/17 04:11:25;;;;;;;;;42.80;38.00;;;;;10.38;63.59;103108.56;2068628;28;47658;-59
2021/12/17 04:12:41;;;;;;;;;49.75;40.50;;;;;10.38;63.42;103100.59;2067287;28;47712;-58
2021/12/17 04:13:42;;;;;;;;;46.80;38.00;;;;;10.40;63.20;103104.19;2068043;28;47779;-59
2021/12/17 04:14:46;;;;;;;;;46.20;36.40;;;;;10.40;63.42;103103.28;2070269;28;47282;-58
2021/12/17 04:15:53;;;;;;;;;51.20;41.40;;;;;10.42;63.42;103098.91;2070773;28;47724;-57
2021/12/17 04:17:01;;;;;;;;;47.20;40.60;;;;;10.41;63.20;103102.41;2067558;28;47868;-58
2021/12/17 04:18:07;;;;;;;;;41.80;36.00;;;;;10.42;63.23;103093.63;2061120;28;47102;-58
2021/12/17 04:19:07;;;;;;;;;47.40;39.60;;;;;10.42;63.30;103102.47;2061139;28;47425;-57
2021/12/17 04:20:09;;;;;;;;;49.75;40.50;;;;;10.42;63.42;103110.44;2069784;28;47522;-57
2021/12/17 04:21:14;;;;;;;;;42.20;36.60;;;;;10.43;63.26;103104.25;2070170;28;47374;-59
2021/12/17 04:22:14;;;;;;;;;47.20;37.20;;;;;10.44;63.08;103106.03;2070065;28;47168;-58
2021/12/17 04:23:15;;;;;;;;;43.25;37.25;;;;;10.44;63.41;103092.75;2061884;28;47244;-60
2021/12/17 04:24:16;;;;;;;;;45.20;37.20;;;;;10.45;63.13;103093.66;2070592;28;46214;-62
2021/12/17 04:25:16;;;;;;;;;44.75;37.25;;;;;10.45;63.05;103091.91;2070592;28;46616;-58
2021/12/17 04:26:17;;;;;;;;;42.50;37.25;;;;;10.46;63.27;103096.34;2070544;28;46774;-59
2021/12/17 04:27:18;;;;;;;;;44.40;38.00;;;;;10.46;63.04;103095.44;2065077;28;47535;-59
2021/12/17 04:28:20;;;;;;;;;47.50;38.00;;;;;10.48;63.00;103096.34;2069691;28;47077;-59
2021/12/17 04:29:21;;;;;;;;;45.40;39.20;;;;;10.48;63.15;103099.00;2068041;28;47598;-57
2021/12/17 04:30:24;;;;;;;;;44.60;38.40;;;;;10.49;63.12;103098.13;2071100;28;47046;-58
2021/12/17 04:31:26;;;;;;;;;46.20;38.80;;;;;10.49;63.22;103099.03;2068892;28;47928;-58
2021/12/17 04:32:27;;;;;;;;;49.60;38.60;;;;;10.51;63.22;103091.97;2066568;28;47546;-57
2021/12/17 04:33:27;;;;;;;;;48.25;40.25;;;;;10.51;63.11;103091.97;2065896;28;47691;-57
2021/12/17 04:34:28;;;;;;;;;39.00;35.25;;;;;10.52;63.13;103090.22;2070111;28;47697;-60
2021/12/17 04:35:28;;;;;;;;;44.00;37.75;;;;;10.52;63.08;103091.09;2069969;28;47513;-58
2021/12/17 04:36:32;;;;;;;;;43.50;39.00;;;;;10.52;63.05;103093.75;2067996;28;46815;-58
2021/12/17 04:37:33;;;;;;;;;47.00;38.40;;;;;10.53;63.14;103090.25;2066329;28;47670;-58
2021/12/17 04:38:34;;;;;;;;;49.40;39.80;;;;;10.55;62.95;103095.59;2070658;28;47494;-58
2021/12/17 04:39:35;;;;;;;;;44.00;37.75;;;;;10.56;62.94;103094.72;2070772;28;47037;-55
2021/12/17 04:40:38;;;;;;;;;50.40;41.60;;;;;10.57;62.87;103093.84;2071792;28;47191;-58
2021/12/17 04:44:10;;;;;;;;;43.40;36.60;;;;;10.57;62.83;103093.84;2069957;28;46480;-57
2021/12/17 04:45:11;;;;;;;;;37.20;33.80;;;;;10.57;62.90;103094.75;2070127;28;47699;-55
2021/12/17 04:57:32;;;;;;;;;46.60;38.20;;;;;10.54;63.34;103086.75;2062528;28;47516;-58
2021/12/17 04:58:33;;;;;;;;;43.60;38.00;;;;;10.55;63.22;103091.19;2062691;28;48205;-58
2021/12/17 04:59:34;;;;;;;;;42.25;36.25;;;;;10.57;63.26;103093.84;2066783;28;47893;-59
2021/12/17 05:00:34;;;;;;;;;47.00;39.00;;;;;10.57;63.30;103088.56;2069338;28;45513;-56
2021/12/17 05:01:35;;;;;;;;;43.00;37.50;;;;;10.58;63.10;103085.91;2068854;28;47149;-57
2021/12/17 05:02:41;;;;;;;;;48.50;41.00;;;;;10.59;63.28;103089.47;2068442;28;47203;-58
2021/12/17 05:03:42;;;;;;;;;41.20;37.40;;;;;10.58;62.99;103087.69;2069603;28;47520;-57
2021/12/17 05:04:44;;;;;;;;;44.60;36.00;;;;;10.59;63.27;103093.00;2070834;28;47326;-58
2021/12/17 05:05:44;;;;;;;;;46.40;37.60;;;;;10.58;62.99;103087.69;2064664;28;48091;-57
2021/12/17 05:06:45;;;;;;;;;41.75;36.00;;;;;10.59;63.18;103090.34;2060164;28;47180;-58
2021/12/17 05:07:54;;;;;;;;;42.75;35.75;;;;;10.59;63.01;103093.00;2066727;28;47170;-58
2021/12/17 05:09:00;;;;;;;;;39.60;37.00;;;;;10.58;62.95;103091.22;2062125;28;47482;-57
2021/12/17 05:11:38;;;;;;;;;38.00;34.80;;;;;10.60;63.46;103100.09;2035718;28;47325;-57
2021/12/17 05:20:28;;;;;;;;;41.00;34.75;;;;;10.65;63.11;103094.84;2060767;28;48226;-64
2021/12/17 05:21:29;;;;;;;;;43.40;36.00;;;;;10.66;63.05;103101.94;2061248;28;48377;-60
2021/12/17 05:22:29;;;;;;;;;42.75;37.00;;;;;10.67;63.30;103100.19;2060641;28;46336;-58
2021/12/17 05:23:35;;;;;;;;;47.25;38.00;;;;;10.67;63.44;103103.78;2068457;28;46961;-55
2021/12/17 05:24:35;;;;;;;;;43.00;35.40;;;;;10.68;63.25;103102.91;2063534;28;47379;-57
2021/12/17 05:25:36;;;;;;;;;46.25;38.00;;;;;10.70;63.24;103102.91;2057840;28;48172;-57
2021/12/17 05:26:37;;;;;;;;;38.00;35.00;;;;;10.72;63.31;103095.88;2064489;28;47388;-59
2021/12/17 05:27:37;;;;;;;;;46.60;38.40;;;;;10.71;63.46;103097.63;2066074;28;46382;-59
2021/12/17 05:28:38;;;;;;;;;49.50;42.25;;;;;10.72;63.23;103095.88;2066932;28;47033;-58
2021/12/17 05:29:38;;;;;;;;;48.50;42.00;;;;;10.72;63.17;103091.44;2067452;28;46898;-57
2021/12/17 05:30:45;;;;;;;;;43.75;36.25;;;;;10.73;63.23;103102.97;2068312;28;47032;-58
2021/12/17 05:31:45;;;;;;;;;46.60;38.00;;;;;10.74;63.34;103102.97;2062623;28;48078;-58
2021/12/17 05:32:46;;;;;;;;;48.50;38.50;;;;;10.76;63.18;103100.34;2065570;28;46861;-59
2021/12/17 05:33:46;;;;;;;;;46.00;38.00;;;;;10.77;63.45;103104.78;2066429;28;48088;-58
2021/12/17 05:34:47;;;;;;;;;45.75;38.75;;;;;10.76;63.47;103098.56;2071226;28;45345;-57
2021/12/17 05:35:48;;;;;;;;;42.75;36.75;;;;;10.78;63.40;103095.94;2070637;28;47305;-58
2021/12/17 05:36:48;;;;;;;;;42.40;36.60;;;;;10.77;63.36;103089.75;2068402;28;47767;-58
2021/12/17 05:37:49;;;;;;;;;44.25;38.25;;;;;10.78;63.80;103094.19;2065289;28;47229;-60
2021/12/17 05:38:49;;;;;;;;;42.50;37.75;;;;;10.79;63.31;103095.97;2067235;28;47532;-58
2021/12/17 05:39:50;;;;;;;;;43.50;37.75;;;;;10.79;63.54;103088.00;2070244;28;47282;-59
2021/12/17 05:40:52;;;;;;;;;43.00;36.75;;;;;10.80;63.37;103092.47;2070871;28;47836;-57
2021/12/17 05:41:52;;;;;;;;;43.40;37.60;;;;;10.81;63.28;103096.00;2063530;28;46996;-58
2021/12/17 05:42:57;;;;;;;;;44.50;37.25;;;;;10.82;63.58;103087.19;2063089;28;47482;-59
2021/12/17 05:43:57;;;;;;;;;45.60;38.80;;;;;10.82;63.43;103088.06;2067746;28;47186;-56
2021/12/17 05:45:07;;;;;;;;;47.00;38.00;;;;;10.83;63.32;103081.88;2070460;28;47108;-60
2021/12/17 05:46:09;;;;;;;;;47.00;39.80;;;;;10.85;63.56;103088.09;2069414;28;47784;-58
2021/12/17 05:47:10;;;;;;;;;43.80;35.60;;;;;10.85;63.40;103080.13;2067612;28;46461;-58
2021/12/17 05:48:10;;;;;;;;;42.25;36.00;;;;;10.86;63.48;103081.91;2070191;28;47364;-58
2021/12/17 05:49:11;;;;;;;;;44.25;38.00;;;;;10.87;63.43;103083.69;2067509;28;47289;-58
2021/12/17 05:50:11;;;;;;;;;44.25;38.25;;;;;10.88;63.50;103080.16;2070933;28;47333;-57
2021/12/17 05:51:11;;;;;;;;;45.50;38.00;;;;;10.90;63.35;103080.19;2071805;28;45815;-67
2021/12/17 05:52:12;;;;;;;;;48.25;38.00;;;;;10.92;63.44;103086.41;2068092;28;48992;-58
2021/12/17 05:53:13;;;;;;;;;41.25;37.00;;;;;10.94;63.24;103086.47;2071420;28;47360;-59
2021/12/17 05:54:14;;;;;;;;;38.50;35.25;;;;;10.95;63.50;103081.16;2068942;28;47592;-59
2021/12/17 05:55:15;;;;;;;;;49.00;39.80;;;;;10.96;63.46;103082.06;2072427;28;47995;-59
2021/12/17 05:56:15;;;;;;;;;48.25;40.50;;;;;10.96;63.60;103088.28;2071063;28;47247;-57
2021/12/17 05:57:15;;;;;;;;;46.75;36.25;;;;;10.97;63.51;103089.16;2069392;28;47614;-57
2021/12/17 05:58:17;;;;;;;;;31.75;31.00;;;;;10.98;63.54;103086.53;2071581;28;47430;-58
2021/12/17 05:59:17;;;;;;;;;45.00;35.00;;;;;10.98;63.37;103086.53;2072355;28;48077;-58
2021/12/17 06:00:20;;;;;;;;;43.50;37.75;;;;;11.00;63.58;103087.44;2070862;28;47520;-60
2021/12/17 06:01:20;;;;;;;;;43.80;35.60;;;;;11.01;63.51;103086.56;2067004;28;47807;-59
2021/12/17 06:02:21;;;;;;;;;40.25;36.25;;;;;11.01;63.68;103086.56;2068645;28;46129;-59
2021/12/17 06:03:23;;;;;;;;;46.00;38.25;;;;;11.02;63.47;103083.03;2068712;28;46245;-60
2021/12/17 06:04:23;;;;;;;;;40.20;36.40;;;;;11.03;63.58;103084.81;2072172;28;46319;-59
2021/12/17 06:05:25;;;;;;;;;42.25;37.75;;;;;11.05;63.27;103085.75;2071666;28;46719;-60
2021/12/17 06:06:38;;;;;;;;;43.20;35.20;;;;;11.07;63.63;103083.13;2069531;28;47524;-58
2021/12/17 06:07:38;;;;;;;;;38.00;34.60;;;;;11.09;63.60;103089.34;2067426;28;47825;-57
2021/12/17 06:08:40;;;;;;;;;38.50;34.00;;;;;11.09;63.52;103082.25;2066374;28;47742;-57
2021/12/17 06:09:41;;;;;;;;;40.40;35.80;;;;;11.11;63.55;103087.59;2071454;28;47910;-59
2021/12/17 06:10:42;;;;;;;;;40.00;35.50;;;;;11.13;63.38;103088.50;2070738;28;47501;-58
2021/12/17 06:11:42;;;;;;;;;34.50;32.00;;;;;11.14;63.35;103085.84;2069418;28;47169;-57
2021/12/17 06:12:43;;;;;;;;;45.50;36.25;;;;;11.15;63.58;103084.09;2070276;28;47737;-56
2021/12/17 06:13:43;;;;;;;;;40.50;35.75;;;;;11.16;63.28;103085.88;2070819;28;47559;-57
2021/12/17 06:14:44;;;;;;;;;27.75;25.75;;;;;11.18;63.49;103081.50;2067288;28;46382;-58
2021/12/17 06:15:44;;;;;;;;;44.00;37.25;;;;;11.19;63.32;103086.84;2064455;28;47114;-58
2021/12/17 06:16:45;;;;;;;;;38.75;32.50;;;;;11.20;63.48;103085.97;2064513;28;48069;-57
2021/12/17 06:17:46;;;;;;;;;40.00;34.25;;;;;11.21;63.45;103084.19;2066054;28;47148;-58
2021/12/17 06:18:46;;;;;;;;;42.00;34.60;;;;;11.22;63.32;103077.09;2068785;28;47211;-58
2021/12/17 06:19:47;;;;;;;;;40.50;34.00;;;;;11.24;63.52;103088.66;2068876;28;47248;-56
2021/12/17 06:20:47;;;;;;;;;43.25;36.50;;;;;11.24;63.35;103084.22;2062660;28;46849;-57
2021/12/17 06:21:48;;;;;;;;;38.25;32.75;;;;;11.25;63.51;103093.09;2060369;28;47391;-58
2021/12/17 06:22:49;;;;;;;;;43.25;36.50;;;;;11.26;63.59;103093.09;2063474;28;46761;-57
2021/12/17 06:23:49;;;;;;;;;46.20;36.40;;;;;11.25;63.42;103088.66;2064641;28;47448;-58
2021/12/17 06:24:50;;;;;;;;;36.75;34.50;;;;;11.28;63.26;103085.16;2059871;28;45305;-58
2021/12/17 06:25:50;;;;;;;;;41.75;35.50;;;;;11.28;63.49;103091.34;2066101;28;47856;-68
2021/12/17 06:26:51;;;;;;;;;40.50;35.25;;;;;11.29;63.27;103086.94;2062924;28;48028;-57
2021/12/17 06:27:51;;;;;;;;;40.75;35.50;;;;;11.29;63.52;103086.94;2063468;28;46952;-58
2021/12/17 06:28:52;;;;;;;;;36.75;32.50;;;;;11.28;63.11;103083.38;2062207;28;46909;-59
2021/12/17 06:29:53;;;;;;;;;38.00;34.00;;;;;11.30;63.42;103096.69;2060160;28;47666;-58
2021/12/17 06:30:53;;;;;;;;;39.40;32.60;;;;;11.30;63.31;103086.06;2064504;28;46149;-58
2021/12/17 06:31:54;;;;;;;;;32.75;30.25;;;;;11.31;63.50;103094.09;2061336;28;47321;-58
2021/12/17 06:32:56;;;;;;;;;36.75;33.00;;;;;11.32;63.60;103093.22;2064024;28;48317;-56
2021/12/17 06:33:56;;;;;;;;;43.20;33.60;;;;;11.33;63.48;103088.78;2064809;28;47016;-57
2021/12/17 06:34:57;;;;;;;;;35.00;33.25;;;;;11.33;63.43;103087.00;2065857;28;47165;-60
2021/12/17 06:35:57;;;;;;;;;40.25;35.00;;;;;11.35;63.77;103081.72;2071885;28;48142;-58
2021/12/17 06:36:58;;;;;;;;;36.50;34.50;;;;;11.34;63.67;103091.44;2067633;28;46293;-58